CES5401 ZSSS-ZUUU
Flight info
| Callsign | CES5401 |
|---|---|
| Flight time | 2h 40m |
| Altitude | 32100 |
| Route | POMOK G330 UNTAN G345 OLRIS R343 MADUK W51 LEGIV W164 ADGOL W50 XSH W80 URGEG W231 EKOKA |
| Aircraft | C919/M-SDE2E3FGHIRWXY/LB1 |
Departure
| Time | 2026-05-09 06:07 |
|---|---|
| Airport | Shanghai Hongqiao International Airport (ZSSS) |
Arrival
| Time | 2026-05-09 08:48 |
|---|---|
| Airport | Chengdu Shuangliu International Airport (ZUUU) |
| Time | Latitude | Longitude | Altitude | Speed | Heading |
|---|---|---|---|---|---|
| 2026-05-09 05:08 | 31.19876 | 121.32846 | 21 ft | 0 kts | 267° |
| 2026-05-09 05:11 | 31.19876 | 121.32847 | 21 ft | 0 kts | 267° |
| 2026-05-09 05:24 | 31.19876 | 121.32848 | 21 ft | 0 kts | 267° |
| 2026-05-09 05:41 | 31.19876 | 121.32849 | 21 ft | 0 kts | 267° |
| 2026-05-09 05:48 | 31.19876 | 121.32853 | 21 ft | 2 kts | 266° |
| 2026-05-09 05:48 | 31.19876 | 121.32872 | 21 ft | 2 kts | 275° |
| 2026-05-09 05:49 | 31.19873 | 121.32891 | 21 ft | 2 kts | 304° |
| 2026-05-09 05:49 | 31.19860 | 121.32901 | 24 ft | 1 kts | 353° |
| 2026-05-09 05:49 | 31.19857 | 121.32901 | 23 ft | 0 kts | 355° |
| 2026-05-09 05:51 | 31.19858 | 121.32901 | 21 ft | 0 kts | 355° |
| 2026-05-09 05:51 | 31.19859 | 121.32901 | 21 ft | 0 kts | 355° |
| 2026-05-09 05:52 | 31.19866 | 121.32900 | 22 ft | 2 kts | 354° |
| 2026-05-09 05:52 | 31.19869 | 121.32900 | 21 ft | 0 kts | 354° |
| 2026-05-09 05:56 | 31.19877 | 121.32899 | 23 ft | 1 kts | 354° |
| 2026-05-09 05:56 | 31.19878 | 121.32899 | 23 ft | 0 kts | 354° |
| 2026-05-09 05:56 | 31.19884 | 121.32898 | 21 ft | 0 kts | 354° |
| 2026-05-09 05:56 | 31.19885 | 121.32898 | 21 ft | 0 kts | 354° |
| 2026-05-09 05:57 | 31.19889 | 121.32897 | 23 ft | 0 kts | 354° |
| 2026-05-09 05:57 | 31.19890 | 121.32897 | 23 ft | 0 kts | 354° |
| 2026-05-09 05:59 | 31.19892 | 121.32897 | 23 ft | 1 kts | 355° |
| 2026-05-09 06:02 | 31.19898 | 121.32901 | 23 ft | 4 kts | 19° |
| 2026-05-09 06:02 | 31.19959 | 121.32941 | 21 ft | 15 kts | 16° |
| 2026-05-09 06:02 | 31.20080 | 121.32959 | 21 ft | 18 kts | 356° |
| 2026-05-09 06:02 | 31.20192 | 121.32943 | 21 ft | 16 kts | 4° |
| 2026-05-09 06:03 | 31.20259 | 121.32947 | 21 ft | 6 kts | 359° |
| 2026-05-09 06:03 | 31.20315 | 121.32945 | 21 ft | 10 kts | 354° |
| 2026-05-09 06:03 | 31.20393 | 121.32940 | 21 ft | 11 kts | 1° |
| 2026-05-09 06:03 | 31.20457 | 121.32937 | 23 ft | 11 kts | 357° |
| 2026-05-09 06:04 | 31.20547 | 121.32932 | 21 ft | 15 kts | 357° |
| 2026-05-09 06:04 | 31.20659 | 121.32927 | 22 ft | 13 kts | 354° |
| 2026-05-09 06:04 | 31.20760 | 121.32919 | 21 ft | 16 kts | 355° |
| 2026-05-09 06:04 | 31.20876 | 121.32911 | 21 ft | 14 kts | 0° |
| 2026-05-09 06:05 | 31.20980 | 121.32906 | 21 ft | 16 kts | 359° |
| 2026-05-09 06:05 | 31.21097 | 121.32903 | 21 ft | 18 kts | 1° |
| 2026-05-09 06:05 | 31.21209 | 121.32897 | 21 ft | 14 kts | 2° |
| 2026-05-09 06:05 | 31.21276 | 121.32925 | 22 ft | 6 kts | 52° |
| 2026-05-09 06:06 | 31.21285 | 121.32981 | 21 ft | 8 kts | 86° |
| 2026-05-09 06:06 | 31.21287 | 121.33050 | 21 ft | 8 kts | 87° |
| 2026-05-09 06:06 | 31.21284 | 121.33124 | 20 ft | 10 kts | 108° |
| 2026-05-09 06:06 | 31.21224 | 121.33172 | 20 ft | 10 kts | 173° |
| 2026-05-09 06:07 | 31.21140 | 121.33176 | 19 ft | 16 kts | 180° |
| 2026-05-09 06:07 | 31.20741 | 121.33196 | 20 ft | 101 kts | 177° |
| 2026-05-09 06:07 | 31.19796 | 121.33251 | 55 ft | 165 kts | 177° |
| 2026-05-09 06:07 | 31.18665 | 121.33302 | 833 ft | 154 kts | 178° |
| 2026-05-09 06:08 | 31.17582 | 121.33349 | 1450 ft | 155 kts | 174° |
| 2026-05-09 06:08 | 31.16511 | 121.33407 | 2106 ft | 154 kts | 175° |
| 2026-05-09 06:08 | 31.15440 | 121.33465 | 2680 ft | 156 kts | 175° |
| 2026-05-09 06:08 | 31.14355 | 121.33524 | 3095 ft | 158 kts | 175° |
| 2026-05-09 06:09 | 31.13633 | 121.33563 | 3586 ft | 153 kts | 175° |
| 2026-05-09 06:09 | 31.12612 | 121.33619 | 4369 ft | 147 kts | 174° |
| 2026-05-09 06:09 | 31.11514 | 121.33686 | 4664 ft | 172 kts | 175° |
| 2026-05-09 06:09 | 31.10266 | 121.33756 | 5022 ft | 186 kts | 174° |
| 2026-05-09 06:10 | 31.08899 | 121.33836 | 5342 ft | 210 kts | 175° |
| 2026-05-09 06:10 | 31.06795 | 121.33952 | 5678 ft | 248 kts | 178° |
| 2026-05-09 06:10 | 31.05609 | 121.33728 | 5843 ft | 263 kts | 200° |
| 2026-05-09 06:10 | 31.04178 | 121.32439 | 6042 ft | 273 kts | 233° |
| 2026-05-09 06:11 | 31.03582 | 121.30354 | 6421 ft | 279 kts | 268° |
| 2026-05-09 06:11 | 31.03797 | 121.28083 | 6756 ft | 283 kts | 279° |
| 2026-05-09 06:11 | 31.04213 | 121.25849 | 7090 ft | 284 kts | 282° |
| 2026-05-09 06:11 | 31.04691 | 121.23647 | 7407 ft | 284 kts | 283° |
| 2026-05-09 06:12 | 31.05188 | 121.21416 | 7741 ft | 286 kts | 283° |
| 2026-05-09 06:12 | 31.05678 | 121.19164 | 7929 ft | 286 kts | 283° |
| 2026-05-09 06:12 | 31.06149 | 121.16905 | 7972 ft | 285 kts | 282° |
| 2026-05-09 06:12 | 31.06885 | 121.14753 | 8311 ft | 289 kts | 302° |
| 2026-05-09 06:13 | 31.08318 | 121.13111 | 8657 ft | 290 kts | 329° |
| 2026-05-09 06:13 | 31.10218 | 121.12349 | 9011 ft | 292 kts | 354° |
| 2026-05-09 06:13 | 31.12261 | 121.12208 | 9379 ft | 296 kts | 357° |
| 2026-05-09 06:13 | 31.14323 | 121.12104 | 9741 ft | 297 kts | 357° |
| 2026-05-09 06:14 | 31.16396 | 121.12009 | 10098 ft | 298 kts | 357° |
| 2026-05-09 06:14 | 31.18466 | 121.11912 | 10428 ft | 298 kts | 356° |
| 2026-05-09 06:14 | 31.20536 | 121.11810 | 10757 ft | 297 kts | 356° |
| 2026-05-09 06:14 | 31.22609 | 121.11701 | 11096 ft | 298 kts | 356° |
| 2026-05-09 06:15 | 31.24677 | 121.11589 | 11431 ft | 298 kts | 356° |
| 2026-05-09 06:15 | 31.26749 | 121.11479 | 11775 ft | 298 kts | 355° |
| 2026-05-09 06:15 | 31.28794 | 121.11367 | 12123 ft | 298 kts | 355° |
| 2026-05-09 06:15 | 31.30883 | 121.11242 | 12237 ft | 300 kts | 355° |
| 2026-05-09 06:16 | 31.32972 | 121.11151 | 12319 ft | 301 kts | 358° |
| 2026-05-09 06:16 | 31.35069 | 121.11217 | 12397 ft | 301 kts | 0° |
| 2026-05-09 06:16 | 31.37160 | 121.11344 | 12470 ft | 301 kts | 1° |
| 2026-05-09 06:16 | 31.39257 | 121.11463 | 12454 ft | 300 kts | 359° |
| 2026-05-09 06:17 | 31.41343 | 121.11550 | 12348 ft | 301 kts | 359° |
| 2026-05-09 06:17 | 31.43437 | 121.11593 | 12141 ft | 301 kts | 359° |
| 2026-05-09 06:17 | 31.45490 | 121.11293 | 11946 ft | 293 kts | 340° |
| 2026-05-09 06:17 | 31.47375 | 121.10374 | 11919 ft | 296 kts | 334° |
| 2026-05-09 06:18 | 31.49258 | 121.09381 | 11919 ft | 297 kts | 334° |
| 2026-05-09 06:18 | 31.51144 | 121.08389 | 11921 ft | 297 kts | 334° |
| 2026-05-09 06:18 | 31.53023 | 121.07399 | 11919 ft | 297 kts | 334° |
| 2026-05-09 06:18 | 31.54904 | 121.06404 | 11921 ft | 297 kts | 334° |
| 2026-05-09 06:19 | 31.56779 | 121.05409 | 11918 ft | 294 kts | 333° |
| 2026-05-09 06:19 | 31.58643 | 121.04418 | 11918 ft | 295 kts | 333° |
| 2026-05-09 06:19 | 31.60477 | 121.03443 | 12104 ft | 289 kts | 333° |
| 2026-05-09 06:19 | 31.62305 | 121.02474 | 12624 ft | 293 kts | 333° |
| 2026-05-09 06:20 | 31.64188 | 121.01469 | 13146 ft | 303 kts | 334° |
| 2026-05-09 06:20 | 31.66163 | 121.00415 | 13686 ft | 313 kts | 334° |
| 2026-05-09 06:20 | 31.68145 | 120.99356 | 14181 ft | 322 kts | 334° |
| 2026-05-09 06:20 | 31.70219 | 120.98249 | 14670 ft | 332 kts | 333° |
| 2026-05-09 06:21 | 31.72346 | 120.97113 | 15146 ft | 340 kts | 334° |
| 2026-05-09 06:21 | 31.74525 | 120.95949 | 15639 ft | 348 kts | 334° |
| 2026-05-09 06:21 | 31.76756 | 120.94757 | 16139 ft | 356 kts | 334° |
| 2026-05-09 06:21 | 31.79037 | 120.93537 | 16646 ft | 363 kts | 334° |
| 2026-05-09 06:22 | 31.81359 | 120.92296 | 17166 ft | 369 kts | 334° |
| 2026-05-09 06:22 | 31.83710 | 120.91039 | 17728 ft | 374 kts | 333° |
| 2026-05-09 06:22 | 31.86096 | 120.89762 | 18287 ft | 379 kts | 333° |
| 2026-05-09 06:22 | 31.88508 | 120.88471 | 18783 ft | 383 kts | 333° |
| 2026-05-09 06:23 | 31.90942 | 120.87168 | 19270 ft | 386 kts | 333° |
| 2026-05-09 06:23 | 31.93399 | 120.85852 | 19765 ft | 389 kts | 333° |
| 2026-05-09 06:23 | 31.95871 | 120.84527 | 20268 ft | 391 kts | 333° |
| 2026-05-09 06:23 | 31.98356 | 120.83193 | 20793 ft | 393 kts | 332° |
| 2026-05-09 06:24 | 32.00849 | 120.81853 | 21315 ft | 394 kts | 332° |
| 2026-05-09 06:24 | 32.03349 | 120.80506 | 21843 ft | 396 kts | 332° |
| 2026-05-09 06:24 | 32.05852 | 120.79158 | 22379 ft | 396 kts | 332° |
| 2026-05-09 06:24 | 32.08356 | 120.77808 | 22924 ft | 396 kts | 332° |
| 2026-05-09 06:25 | 32.10859 | 120.76458 | 23487 ft | 395 kts | 331° |
| 2026-05-09 06:25 | 32.13294 | 120.75006 | 23969 ft | 389 kts | 322° |
| 2026-05-09 06:25 | 32.15266 | 120.72903 | 24455 ft | 379 kts | 306° |
| 2026-05-09 06:25 | 32.16588 | 120.70263 | 24930 ft | 371 kts | 289° |
| 2026-05-09 06:26 | 32.17133 | 120.67326 | 25427 ft | 365 kts | 276° |
| 2026-05-09 06:26 | 32.17410 | 120.64363 | 25914 ft | 362 kts | 276° |
| 2026-05-09 06:26 | 32.17668 | 120.61462 | 26403 ft | 358 kts | 276° |
| 2026-05-09 06:26 | 32.17916 | 120.58559 | 26913 ft | 353 kts | 276° |
| 2026-05-09 06:27 | 32.18155 | 120.55693 | 27430 ft | 348 kts | 275° |
| 2026-05-09 06:27 | 32.18386 | 120.52869 | 27958 ft | 342 kts | 275° |
| 2026-05-09 06:27 | 32.18612 | 120.50099 | 28489 ft | 336 kts | 275° |
| 2026-05-09 06:27 | 32.18833 | 120.47388 | 29032 ft | 328 kts | 275° |
| 2026-05-09 06:28 | 32.19049 | 120.44734 | 29588 ft | 319 kts | 275° |
| 2026-05-09 06:28 | 32.19259 | 120.42163 | 30145 ft | 310 kts | 275° |
| 2026-05-09 06:28 | 32.19464 | 120.39657 | 30525 ft | 305 kts | 275° |
| 2026-05-09 06:28 | 32.19667 | 120.37168 | 30685 ft | 305 kts | 275° |
| 2026-05-09 06:29 | 32.19871 | 120.34666 | 30806 ft | 306 kts | 275° |
| 2026-05-09 06:29 | 32.20074 | 120.32159 | 30939 ft | 307 kts | 275° |
| 2026-05-09 06:29 | 32.20240 | 120.29648 | 31076 ft | 308 kts | 269° |
| 2026-05-09 06:29 | 32.19781 | 120.27180 | 31184 ft | 313 kts | 249° |
| 2026-05-09 06:30 | 32.17725 | 120.22555 | 31353 ft | 319 kts | 248° |
| 2026-05-09 06:30 | 32.16667 | 120.20252 | 31512 ft | 320 kts | 247° |
| 2026-05-09 06:30 | 32.15602 | 120.17944 | 31631 ft | 320 kts | 247° |
| 2026-05-09 06:31 | 32.14549 | 120.15663 | 31765 ft | 321 kts | 248° |
| 2026-05-09 06:31 | 32.13477 | 120.13336 | 31751 ft | 325 kts | 248° |
| 2026-05-09 06:31 | 32.12398 | 120.10990 | 31901 ft | 325 kts | 248° |
| 2026-05-09 06:31 | 32.11321 | 120.08651 | 32052 ft | 325 kts | 248° |
| 2026-05-09 06:32 | 32.10241 | 120.06304 | 32159 ft | 326 kts | 248° |
| 2026-05-09 06:32 | 32.09158 | 120.03947 | 32207 ft | 329 kts | 248° |
| 2026-05-09 06:33 | 32.05819 | 119.96670 | 32208 ft | 344 kts | 248° |
| 2026-05-09 06:33 | 32.03507 | 119.91637 | 32204 ft | 354 kts | 248° |
| 2026-05-09 06:34 | 31.99957 | 119.83791 | 32202 ft | 368 kts | 248° |
| 2026-05-09 06:34 | 31.97522 | 119.78395 | 32204 ft | 377 kts | 247° |
| 2026-05-09 06:35 | 31.95017 | 119.72865 | 32204 ft | 387 kts | 247° |
| 2026-05-09 06:35 | 31.92475 | 119.67188 | 32196 ft | 397 kts | 248° |
| 2026-05-09 06:36 | 31.89962 | 119.61312 | 32200 ft | 406 kts | 248° |
| 2026-05-09 06:36 | 31.87436 | 119.55343 | 32193 ft | 407 kts | 248° |
| 2026-05-09 06:37 | 31.84913 | 119.49428 | 32198 ft | 407 kts | 248° |
| 2026-05-09 06:37 | 31.82356 | 119.43478 | 32197 ft | 409 kts | 248° |
| 2026-05-09 06:38 | 31.79782 | 119.37518 | 32196 ft | 409 kts | 248° |
| 2026-05-09 06:38 | 31.77179 | 119.31576 | 32191 ft | 409 kts | 247° |
| 2026-05-09 06:39 | 31.74556 | 119.25640 | 32183 ft | 409 kts | 247° |
| 2026-05-09 06:39 | 31.71933 | 119.19708 | 32190 ft | 409 kts | 247° |
| 2026-05-09 06:40 | 31.69305 | 119.13760 | 32188 ft | 409 kts | 247° |
| 2026-05-09 06:40 | 31.66701 | 119.07862 | 32179 ft | 409 kts | 247° |
| 2026-05-09 06:41 | 31.65186 | 119.01623 | 32190 ft | 398 kts | 273° |
| 2026-05-09 06:41 | 31.65551 | 118.95097 | 32174 ft | 405 kts | 276° |
| 2026-05-09 06:42 | 31.66104 | 118.88455 | 32177 ft | 410 kts | 276° |
| 2026-05-09 06:42 | 31.66671 | 118.81792 | 32174 ft | 410 kts | 276° |
| 2026-05-09 06:43 | 31.67195 | 118.75128 | 32179 ft | 410 kts | 276° |
| 2026-05-09 06:43 | 31.67685 | 118.68458 | 32179 ft | 410 kts | 275° |
| 2026-05-09 06:44 | 31.68163 | 118.61789 | 32177 ft | 410 kts | 275° |
| 2026-05-09 06:44 | 31.68640 | 118.55124 | 32174 ft | 410 kts | 275° |
| 2026-05-09 06:45 | 31.69114 | 118.48496 | 32171 ft | 409 kts | 275° |
| 2026-05-09 06:45 | 31.69589 | 118.41827 | 32171 ft | 410 kts | 275° |
| 2026-05-09 06:46 | 31.70061 | 118.35161 | 32171 ft | 409 kts | 275° |
| 2026-05-09 06:46 | 31.70529 | 118.28505 | 32168 ft | 409 kts | 275° |
| 2026-05-09 06:47 | 31.70995 | 118.21818 | 32171 ft | 409 kts | 275° |
| 2026-05-09 06:47 | 31.71455 | 118.15174 | 32169 ft | 409 kts | 275° |
| 2026-05-09 06:48 | 31.71375 | 118.08487 | 32166 ft | 412 kts | 262° |
| 2026-05-09 06:48 | 31.70043 | 118.01924 | 32162 ft | 414 kts | 259° |
| 2026-05-09 06:49 | 31.68694 | 117.95392 | 32167 ft | 414 kts | 259° |
| 2026-05-09 06:49 | 31.67343 | 117.88826 | 32167 ft | 414 kts | 259° |
| 2026-05-09 06:50 | 31.65983 | 117.82239 | 32163 ft | 414 kts | 259° |
| 2026-05-09 06:50 | 31.64621 | 117.75676 | 32165 ft | 414 kts | 259° |
| 2026-05-09 06:51 | 31.63255 | 117.69116 | 32159 ft | 414 kts | 259° |
| 2026-05-09 06:51 | 31.61884 | 117.62552 | 32159 ft | 414 kts | 259° |
| 2026-05-09 06:52 | 31.60514 | 117.55989 | 32159 ft | 414 kts | 259° |
| 2026-05-09 06:52 | 31.59291 | 117.49428 | 32160 ft | 414 kts | 261° |
| 2026-05-09 06:53 | 31.58161 | 117.42815 | 32154 ft | 414 kts | 261° |
| 2026-05-09 06:53 | 31.57026 | 117.36182 | 32155 ft | 414 kts | 261° |
| 2026-05-09 06:54 | 31.55861 | 117.29570 | 32152 ft | 414 kts | 261° |
| 2026-05-09 06:54 | 31.54681 | 117.22962 | 32149 ft | 414 kts | 261° |
| 2026-05-09 06:55 | 31.53515 | 117.16400 | 32149 ft | 414 kts | 261° |
| 2026-05-09 06:55 | 31.52342 | 117.09795 | 32149 ft | 413 kts | 261° |
| 2026-05-09 06:56 | 31.51167 | 117.03192 | 32146 ft | 413 kts | 261° |
| 2026-05-09 06:56 | 31.50187 | 116.97707 | 32140 ft | 414 kts | 261° |
| 2026-05-09 06:57 | 31.48804 | 116.89994 | 32143 ft | 414 kts | 261° |
| 2026-05-09 06:57 | 31.47536 | 116.84590 | 32136 ft | 419 kts | 249° |
| 2026-05-09 06:58 | 31.45989 | 116.81672 | 32142 ft | 426 kts | 238° |
| 2026-05-09 06:58 | 31.44191 | 116.78897 | 32138 ft | 427 kts | 238° |
| 2026-05-09 06:58 | 31.40580 | 116.73376 | 32134 ft | 427 kts | 238° |
| 2026-05-09 06:59 | 31.36949 | 116.67848 | 32133 ft | 429 kts | 238° |
| 2026-05-09 06:59 | 31.33319 | 116.62323 | 32142 ft | 427 kts | 238° |
| 2026-05-09 07:00 | 31.29723 | 116.56845 | 32124 ft | 428 kts | 238° |
| 2026-05-09 07:00 | 31.26101 | 116.51327 | 32147 ft | 429 kts | 238° |
| 2026-05-09 07:01 | 31.22469 | 116.45799 | 32157 ft | 428 kts | 238° |
| 2026-05-09 07:01 | 31.18838 | 116.40288 | 32148 ft | 428 kts | 238° |
| 2026-05-09 07:02 | 31.15192 | 116.34762 | 32148 ft | 428 kts | 238° |
| 2026-05-09 07:02 | 31.11562 | 116.29261 | 32710 ft | 427 kts | 235° |
| 2026-05-09 07:03 | 31.09750 | 116.26506 | 31997 ft | 424 kts | 236° |
| 2026-05-09 07:03 | 31.07969 | 116.23840 | 32270 ft | 414 kts | 237° |
| 2026-05-09 07:03 | 31.04448 | 116.18548 | 32288 ft | 413 kts | 237° |
| 2026-05-09 07:04 | 31.00945 | 116.13254 | 32285 ft | 413 kts | 237° |
| 2026-05-09 07:04 | 30.99194 | 116.10596 | 32178 ft | 414 kts | 234° |
| 2026-05-09 07:04 | 30.97422 | 116.07918 | 32219 ft | 416 kts | 237° |
| 2026-05-09 07:05 | 30.93901 | 116.02624 | 32266 ft | 416 kts | 237° |
| 2026-05-09 07:05 | 30.90355 | 115.97303 | 32269 ft | 415 kts | 237° |
| 2026-05-09 07:06 | 30.86812 | 115.91988 | 32267 ft | 416 kts | 237° |
| 2026-05-09 07:06 | 30.83262 | 115.86654 | 32266 ft | 416 kts | 238° |
| 2026-05-09 07:07 | 30.79737 | 115.81321 | 32262 ft | 416 kts | 238° |
| 2026-05-09 07:07 | 30.76220 | 115.75976 | 32256 ft | 416 kts | 238° |
| 2026-05-09 07:08 | 30.72699 | 115.70632 | 32236 ft | 416 kts | 238° |
| 2026-05-09 07:08 | 30.69173 | 115.65300 | 32255 ft | 416 kts | 238° |
| 2026-05-09 07:09 | 30.65637 | 115.59960 | 32247 ft | 417 kts | 238° |
| 2026-05-09 07:09 | 30.62104 | 115.54637 | 32245 ft | 417 kts | 238° |
| 2026-05-09 07:10 | 30.58564 | 115.49313 | 32243 ft | 418 kts | 238° |
| 2026-05-09 07:10 | 30.55022 | 115.43993 | 32243 ft | 417 kts | 238° |
| 2026-05-09 07:11 | 30.51468 | 115.38660 | 32239 ft | 417 kts | 238° |
| 2026-05-09 07:11 | 30.47914 | 115.33331 | 32241 ft | 417 kts | 238° |
| 2026-05-09 07:12 | 30.44641 | 115.27831 | 32201 ft | 408 kts | 251° |
| 2026-05-09 07:12 | 30.43922 | 115.24685 | 32190 ft | 403 kts | 265° |
| 2026-05-09 07:12 | 30.43988 | 115.21453 | 32185 ft | 403 kts | 276° |
| 2026-05-09 07:13 | 30.44656 | 115.14999 | 32167 ft | 403 kts | 276° |
| 2026-05-09 07:13 | 30.45356 | 115.08592 | 32156 ft | 403 kts | 276° |
| 2026-05-09 07:14 | 30.46049 | 115.02134 | 32155 ft | 404 kts | 276° |
| 2026-05-09 07:14 | 30.46720 | 114.95670 | 32162 ft | 404 kts | 276° |
| 2026-05-09 07:15 | 30.47380 | 114.89205 | 32178 ft | 404 kts | 276° |
| 2026-05-09 07:15 | 30.48035 | 114.82734 | 32185 ft | 404 kts | 276° |
| 2026-05-09 07:16 | 30.48688 | 114.76275 | 32195 ft | 404 kts | 276° |
| 2026-05-09 07:16 | 30.49336 | 114.69841 | 32209 ft | 404 kts | 276° |
| 2026-05-09 07:17 | 30.49987 | 114.63365 | 32218 ft | 404 kts | 276° |
| 2026-05-09 07:17 | 30.50633 | 114.56894 | 32219 ft | 404 kts | 276° |
| 2026-05-09 07:18 | 30.51276 | 114.50416 | 32216 ft | 404 kts | 276° |
| 2026-05-09 07:18 | 30.51915 | 114.43946 | 32216 ft | 404 kts | 276° |
| 2026-05-09 07:19 | 30.52552 | 114.37464 | 32196 ft | 404 kts | 276° |
| 2026-05-09 07:19 | 30.53186 | 114.30977 | 32181 ft | 404 kts | 276° |
| 2026-05-09 07:20 | 30.53809 | 114.24494 | 32174 ft | 404 kts | 276° |
| 2026-05-09 07:20 | 30.54425 | 114.18052 | 32172 ft | 404 kts | 276° |
| 2026-05-09 07:21 | 30.55035 | 114.11560 | 32163 ft | 405 kts | 275° |
| 2026-05-09 07:21 | 30.55654 | 114.05082 | 32184 ft | 404 kts | 276° |
| 2026-05-09 07:22 | 30.56280 | 113.98610 | 32188 ft | 404 kts | 276° |
| 2026-05-09 07:22 | 30.56890 | 113.92113 | 32195 ft | 404 kts | 275° |
| 2026-05-09 07:23 | 30.57483 | 113.85680 | 32201 ft | 404 kts | 275° |
| 2026-05-09 07:23 | 30.57910 | 113.79182 | 32202 ft | 404 kts | 270° |
| 2026-05-09 07:24 | 30.57666 | 113.72670 | 32201 ft | 405 kts | 266° |
| 2026-05-09 07:24 | 30.57207 | 113.66157 | 32203 ft | 405 kts | 266° |
| 2026-05-09 07:25 | 30.56819 | 113.59639 | 32198 ft | 405 kts | 267° |
| 2026-05-09 07:25 | 30.56535 | 113.53104 | 32206 ft | 405 kts | 268° |
| 2026-05-09 07:26 | 30.56299 | 113.46579 | 32198 ft | 405 kts | 268° |
| 2026-05-09 07:26 | 30.56065 | 113.40096 | 32200 ft | 405 kts | 268° |
| 2026-05-09 07:27 | 30.55815 | 113.33559 | 32200 ft | 405 kts | 268° |
| 2026-05-09 07:27 | 30.55552 | 113.27021 | 32197 ft | 405 kts | 268° |
| 2026-05-09 07:28 | 30.55284 | 113.20480 | 32194 ft | 405 kts | 268° |
| 2026-05-09 07:28 | 30.55013 | 113.13947 | 32194 ft | 405 kts | 268° |
| 2026-05-09 07:29 | 30.54742 | 113.07410 | 32191 ft | 406 kts | 268° |
| 2026-05-09 07:29 | 30.54468 | 113.00865 | 32191 ft | 406 kts | 268° |
| 2026-05-09 07:30 | 30.54193 | 112.94355 | 32188 ft | 406 kts | 268° |
| 2026-05-09 07:30 | 30.53912 | 112.87809 | 32189 ft | 406 kts | 268° |
| 2026-05-09 07:31 | 30.53628 | 112.81255 | 32156 ft | 406 kts | 268° |
| 2026-05-09 07:31 | 30.53342 | 112.74733 | 32184 ft | 405 kts | 268° |
| 2026-05-09 07:32 | 30.53054 | 112.68248 | 32183 ft | 405 kts | 268° |
| 2026-05-09 07:32 | 30.52762 | 112.61721 | 32181 ft | 405 kts | 268° |
| 2026-05-09 07:33 | 30.52318 | 112.51956 | 32178 ft | 405 kts | 268° |
| 2026-05-09 07:34 | 30.52016 | 112.45419 | 32180 ft | 405 kts | 268° |
| 2026-05-09 07:34 | 30.51713 | 112.38914 | 32176 ft | 405 kts | 268° |
| 2026-05-09 07:35 | 30.51405 | 112.32365 | 32171 ft | 406 kts | 268° |
| 2026-05-09 07:35 | 30.51094 | 112.25834 | 32168 ft | 406 kts | 268° |
| 2026-05-09 07:36 | 30.50780 | 112.19300 | 32166 ft | 406 kts | 268° |
| 2026-05-09 07:36 | 30.50464 | 112.12800 | 32160 ft | 406 kts | 268° |
| 2026-05-09 07:37 | 30.50141 | 112.06211 | 32165 ft | 413 kts | 268° |
| 2026-05-09 07:37 | 30.49972 | 112.02868 | 32709 ft | 422 kts | 270° |
| 2026-05-09 07:37 | 30.49794 | 111.99438 | 32699 ft | 424 kts | 270° |
| 2026-05-09 07:38 | 30.49452 | 111.92622 | 32794 ft | 431 kts | 271° |
| 2026-05-09 07:38 | 30.49105 | 111.85608 | 32763 ft | 440 kts | 268° |
| 2026-05-09 07:39 | 30.48767 | 111.78475 | 32696 ft | 450 kts | 265° |
| 2026-05-09 07:39 | 30.48575 | 111.74825 | 32576 ft | 457 kts | 265° |
| 2026-05-09 07:39 | 30.48375 | 111.71115 | 32448 ft | 465 kts | 265° |
| 2026-05-09 07:39 | 30.48168 | 111.67336 | 32321 ft | 474 kts | 265° |
| 2026-05-09 07:40 | 30.47958 | 111.63531 | 32195 ft | 483 kts | 265° |
| 2026-05-09 07:40 | 30.47741 | 111.59617 | 32070 ft | 492 kts | 265° |
| 2026-05-09 07:40 | 30.47521 | 111.55620 | 31946 ft | 501 kts | 265° |
| 2026-05-09 07:41 | 30.46953 | 111.47448 | 31845 ft | 514 kts | 262° |
| 2026-05-09 07:41 | 30.45859 | 111.39217 | 31844 ft | 525 kts | 259° |
| 2026-05-09 07:42 | 30.44699 | 111.30755 | 31853 ft | 537 kts | 258° |
| 2026-05-09 07:42 | 30.43503 | 111.22089 | 31854 ft | 549 kts | 258° |
| 2026-05-09 07:43 | 30.42270 | 111.13259 | 31845 ft | 561 kts | 258° |
| 2026-05-09 07:43 | 30.41012 | 111.04304 | 31850 ft | 572 kts | 258° |
| 2026-05-09 07:44 | 30.39728 | 110.95202 | 31851 ft | 580 kts | 258° |
| 2026-05-09 07:44 | 30.38413 | 110.85923 | 31844 ft | 585 kts | 258° |
| 2026-05-09 07:45 | 30.37394 | 110.78761 | 31957 ft | 580 kts | 258° |
| 2026-05-09 07:46 | 30.35989 | 110.68958 | 31857 ft | 574 kts | 258° |
| 2026-05-09 07:46 | 30.35353 | 110.64482 | 32175 ft | 557 kts | 258° |
| 2026-05-09 07:47 | 30.34918 | 110.61483 | 32257 ft | 560 kts | 257° |
| 2026-05-09 07:47 | 30.34053 | 110.55512 | 31891 ft | 566 kts | 255° |
| 2026-05-09 07:47 | 30.33424 | 110.51085 | 31865 ft | 557 kts | 258° |
| 2026-05-09 07:48 | 30.33233 | 110.49778 | 31874 ft | 560 kts | 258° |
| 2026-05-09 07:48 | 30.32513 | 110.44794 | 31893 ft | 566 kts | 256° |
| 2026-05-09 07:49 | 30.31232 | 110.35962 | 31811 ft | 559 kts | 255° |
| 2026-05-09 07:49 | 30.29923 | 110.27174 | 31852 ft | 554 kts | 256° |
| 2026-05-09 07:50 | 30.28586 | 110.18309 | 31853 ft | 565 kts | 257° |
| 2026-05-09 07:50 | 30.27278 | 110.09348 | 31848 ft | 559 kts | 254° |
| 2026-05-09 07:51 | 30.25974 | 110.00470 | 31854 ft | 562 kts | 255° |
| 2026-05-09 07:51 | 30.24635 | 109.91526 | 31850 ft | 563 kts | 255° |
| 2026-05-09 07:52 | 30.23306 | 109.82632 | 31850 ft | 560 kts | 257° |
| 2026-05-09 07:52 | 30.21961 | 109.73698 | 31842 ft | 565 kts | 257° |
| 2026-05-09 07:53 | 30.20585 | 109.64787 | 31827 ft | 566 kts | 256° |
| 2026-05-09 07:53 | 30.18736 | 109.55900 | 31844 ft | 570 kts | 250° |
| 2026-05-09 07:54 | 30.16400 | 109.47154 | 31847 ft | 568 kts | 249° |
| 2026-05-09 07:54 | 30.14084 | 109.38441 | 31852 ft | 568 kts | 249° |
| 2026-05-09 07:55 | 30.11787 | 109.29736 | 31966 ft | 556 kts | 249° |
| 2026-05-09 07:55 | 30.10688 | 109.25508 | 32096 ft | 548 kts | 247° |
| 2026-05-09 07:55 | 30.09572 | 109.21282 | 31832 ft | 551 kts | 247° |
| 2026-05-09 07:56 | 30.07294 | 109.12859 | 31850 ft | 555 kts | 247° |
| 2026-05-09 07:56 | 30.04961 | 109.04341 | 31851 ft | 558 kts | 248° |
| 2026-05-09 07:57 | 30.02634 | 108.95790 | 31848 ft | 556 kts | 247° |
| 2026-05-09 07:57 | 30.00395 | 108.87297 | 31845 ft | 552 kts | 248° |
| 2026-05-09 07:58 | 29.98170 | 108.78797 | 31846 ft | 555 kts | 248° |
| 2026-05-09 07:58 | 29.95935 | 108.70300 | 31834 ft | 559 kts | 249° |
| 2026-05-09 07:59 | 29.93685 | 108.61763 | 31856 ft | 554 kts | 249° |
| 2026-05-09 07:59 | 29.91436 | 108.53251 | 31849 ft | 545 kts | 246° |
| 2026-05-09 08:00 | 29.89219 | 108.44939 | 31857 ft | 548 kts | 246° |
| 2026-05-09 08:00 | 29.86975 | 108.36548 | 31836 ft | 545 kts | 247° |
| 2026-05-09 08:01 | 29.84743 | 108.28217 | 31846 ft | 548 kts | 249° |
| 2026-05-09 08:01 | 29.82499 | 108.19823 | 31850 ft | 537 kts | 245° |
| 2026-05-09 08:02 | 29.80323 | 108.11695 | 31856 ft | 533 kts | 247° |
| 2026-05-09 08:02 | 29.78074 | 108.03490 | 31848 ft | 545 kts | 248° |
| 2026-05-09 08:03 | 29.75772 | 107.95064 | 31856 ft | 556 kts | 247° |
| 2026-05-09 08:03 | 29.73473 | 107.86583 | 31852 ft | 558 kts | 248° |
| 2026-05-09 08:04 | 29.71166 | 107.78082 | 31850 ft | 556 kts | 248° |
| 2026-05-09 08:04 | 29.68884 | 107.69666 | 31811 ft | 539 kts | 248° |
| 2026-05-09 08:05 | 29.66603 | 107.61361 | 31835 ft | 551 kts | 250° |
| 2026-05-09 08:05 | 29.65944 | 107.56996 | 31859 ft | 559 kts | 266° |
| 2026-05-09 08:05 | 29.66183 | 107.52531 | 31847 ft | 560 kts | 283° |
| 2026-05-09 08:06 | 29.68295 | 107.43941 | 31850 ft | 559 kts | 290° |
| 2026-05-09 08:06 | 29.70436 | 107.35355 | 31842 ft | 560 kts | 286° |
| 2026-05-09 08:07 | 29.72229 | 107.26644 | 31843 ft | 558 kts | 285° |
| 2026-05-09 08:07 | 29.73310 | 107.22375 | 31840 ft | 553 kts | 297° |
| 2026-05-09 08:07 | 29.75114 | 107.18506 | 31843 ft | 542 kts | 312° |
| 2026-05-09 08:07 | 29.77545 | 107.15290 | 31849 ft | 525 kts | 325° |
| 2026-05-09 08:08 | 29.80189 | 107.12453 | 31840 ft | 524 kts | 326° |
| 2026-05-09 08:08 | 29.85586 | 107.06807 | 31850 ft | 525 kts | 327° |
| 2026-05-09 08:09 | 29.91037 | 107.01184 | 31842 ft | 525 kts | 327° |
| 2026-05-09 08:09 | 29.96488 | 106.95535 | 31585 ft | 527 kts | 327° |
| 2026-05-09 08:09 | 29.99200 | 106.92699 | 31379 ft | 526 kts | 326° |
| 2026-05-09 08:10 | 30.01910 | 106.89853 | 31150 ft | 527 kts | 326° |
| 2026-05-09 08:10 | 30.04616 | 106.87002 | 30906 ft | 528 kts | 326° |
| 2026-05-09 08:10 | 30.07325 | 106.84143 | 30656 ft | 527 kts | 326° |
| 2026-05-09 08:10 | 30.10032 | 106.81287 | 30403 ft | 528 kts | 326° |
| 2026-05-09 08:11 | 30.12745 | 106.78422 | 30156 ft | 529 kts | 326° |
| 2026-05-09 08:11 | 30.15474 | 106.75544 | 29903 ft | 534 kts | 324° |
| 2026-05-09 08:11 | 30.18267 | 106.72624 | 29648 ft | 548 kts | 323° |
| 2026-05-09 08:11 | 30.21058 | 106.69669 | 29383 ft | 538 kts | 326° |
| 2026-05-09 08:12 | 30.26572 | 106.63814 | 28356 ft | 547 kts | 323° |
| 2026-05-09 08:12 | 30.29390 | 106.60840 | 27860 ft | 549 kts | 323° |
| 2026-05-09 08:12 | 30.32219 | 106.57852 | 27357 ft | 552 kts | 322° |
| 2026-05-09 08:13 | 30.35064 | 106.54846 | 26867 ft | 556 kts | 320° |
| 2026-05-09 08:13 | 30.37891 | 106.51854 | 26372 ft | 558 kts | 319° |
| 2026-05-09 08:13 | 30.40750 | 106.48821 | 25873 ft | 558 kts | 317° |
| 2026-05-09 08:13 | 30.43609 | 106.45779 | 25362 ft | 557 kts | 316° |
| 2026-05-09 08:14 | 30.46450 | 106.42749 | 24877 ft | 554 kts | 315° |
| 2026-05-09 08:14 | 30.49271 | 106.39736 | 24379 ft | 550 kts | 314° |
| 2026-05-09 08:14 | 30.52075 | 106.36741 | 23878 ft | 542 kts | 313° |
| 2026-05-09 08:14 | 30.54821 | 106.33809 | 23373 ft | 532 kts | 312° |
| 2026-05-09 08:15 | 30.57487 | 106.30884 | 22864 ft | 517 kts | 308° |
| 2026-05-09 08:15 | 30.59860 | 106.27835 | 22367 ft | 502 kts | 302° |
| 2026-05-09 08:15 | 30.61917 | 106.24660 | 21854 ft | 484 kts | 296° |
| 2026-05-09 08:15 | 30.63752 | 106.21432 | 21370 ft | 475 kts | 295° |
| 2026-05-09 08:16 | 30.65529 | 106.18267 | 20862 ft | 463 kts | 295° |
| 2026-05-09 08:16 | 30.67263 | 106.15156 | 20354 ft | 453 kts | 295° |
| 2026-05-09 08:16 | 30.68924 | 106.12155 | 19863 ft | 441 kts | 295° |
| 2026-05-09 08:16 | 30.70563 | 106.09174 | 19361 ft | 433 kts | 295° |
| 2026-05-09 08:17 | 30.72156 | 106.06251 | 18854 ft | 422 kts | 294° |
| 2026-05-09 08:17 | 30.73356 | 106.03233 | 18355 ft | 401 kts | 281° |
| 2026-05-09 08:17 | 30.73774 | 106.00106 | 17854 ft | 386 kts | 266° |
| 2026-05-09 08:17 | 30.73489 | 105.97039 | 17358 ft | 379 kts | 259° |
| 2026-05-09 08:18 | 30.73073 | 105.94033 | 16848 ft | 376 kts | 259° |
| 2026-05-09 08:18 | 30.72640 | 105.91043 | 16477 ft | 374 kts | 260° |
| 2026-05-09 08:18 | 30.72202 | 105.88060 | 16229 ft | 375 kts | 260° |
| 2026-05-09 08:18 | 30.71764 | 105.85084 | 16005 ft | 374 kts | 260° |
| 2026-05-09 08:19 | 30.71327 | 105.82101 | 15775 ft | 374 kts | 261° |
| 2026-05-09 08:19 | 30.70900 | 105.79170 | 15551 ft | 375 kts | 261° |
| 2026-05-09 08:19 | 30.70461 | 105.76109 | 15025 ft | 392 kts | 262° |
| 2026-05-09 08:19 | 30.70005 | 105.72908 | 15047 ft | 411 kts | 262° |
| 2026-05-09 08:20 | 30.69537 | 105.69587 | 15046 ft | 417 kts | 262° |
| 2026-05-09 08:20 | 30.69066 | 105.66255 | 15046 ft | 418 kts | 262° |
| 2026-05-09 08:20 | 30.68599 | 105.62966 | 15040 ft | 417 kts | 262° |
| 2026-05-09 08:20 | 30.68126 | 105.59641 | 15045 ft | 417 kts | 262° |
| 2026-05-09 08:21 | 30.67650 | 105.56316 | 14967 ft | 418 kts | 262° |
| 2026-05-09 08:21 | 30.67175 | 105.52994 | 14816 ft | 417 kts | 262° |
| 2026-05-09 08:21 | 30.66694 | 105.49659 | 14668 ft | 418 kts | 262° |
| 2026-05-09 08:21 | 30.66213 | 105.46334 | 14529 ft | 417 kts | 262° |
| 2026-05-09 08:22 | 30.65730 | 105.43007 | 14390 ft | 417 kts | 262° |
| 2026-05-09 08:22 | 30.65245 | 105.39680 | 14222 ft | 417 kts | 262° |
| 2026-05-09 08:22 | 30.64761 | 105.36357 | 14015 ft | 418 kts | 262° |
| 2026-05-09 08:22 | 30.64276 | 105.33036 | 13770 ft | 417 kts | 262° |
| 2026-05-09 08:23 | 30.63790 | 105.29710 | 13514 ft | 416 kts | 262° |
| 2026-05-09 08:23 | 30.63310 | 105.26434 | 13249 ft | 414 kts | 262° |
| 2026-05-09 08:23 | 30.62684 | 105.23179 | 12982 ft | 414 kts | 251° |
| 2026-05-09 08:23 | 30.61334 | 105.20242 | 12741 ft | 415 kts | 233° |
| 2026-05-09 08:24 | 30.59504 | 105.17650 | 12489 ft | 415 kts | 231° |
| 2026-05-09 08:24 | 30.57633 | 105.15107 | 12239 ft | 413 kts | 230° |
| 2026-05-09 08:24 | 30.55748 | 105.12594 | 11991 ft | 412 kts | 229° |
| 2026-05-09 08:24 | 30.53864 | 105.10112 | 11638 ft | 405 kts | 229° |
| 2026-05-09 08:25 | 30.52003 | 105.07673 | 10879 ft | 402 kts | 229° |
| 2026-05-09 08:25 | 30.50155 | 105.05251 | 10106 ft | 400 kts | 229° |
| 2026-05-09 08:25 | 30.48327 | 105.02849 | 9388 ft | 394 kts | 229° |
| 2026-05-09 08:25 | 30.46535 | 105.00484 | 8827 ft | 387 kts | 229° |
| 2026-05-09 08:26 | 30.44766 | 104.98140 | 8967 ft | 389 kts | 230° |
| 2026-05-09 08:26 | 30.42987 | 104.95775 | 8792 ft | 387 kts | 230° |
| 2026-05-09 08:26 | 30.41243 | 104.93452 | 8629 ft | 386 kts | 230° |
| 2026-05-09 08:26 | 30.39583 | 104.91030 | 8420 ft | 384 kts | 238° |
| 2026-05-09 08:27 | 30.38392 | 104.88282 | 8271 ft | 381 kts | 251° |
| 2026-05-09 08:27 | 30.37531 | 104.85381 | 8102 ft | 379 kts | 252° |
| 2026-05-09 08:27 | 30.36714 | 104.82484 | 7933 ft | 378 kts | 253° |
| 2026-05-09 08:27 | 30.35919 | 104.79597 | 7759 ft | 376 kts | 253° |
| 2026-05-09 08:28 | 30.35131 | 104.76713 | 7587 ft | 375 kts | 253° |
| 2026-05-09 08:28 | 30.34344 | 104.73838 | 7416 ft | 374 kts | 253° |
| 2026-05-09 08:28 | 30.33557 | 104.70978 | 7280 ft | 371 kts | 253° |
| 2026-05-09 08:28 | 30.32765 | 104.68132 | 7210 ft | 371 kts | 252° |
| 2026-05-09 08:29 | 30.31966 | 104.65290 | 7139 ft | 372 kts | 252° |
| 2026-05-09 08:29 | 30.31164 | 104.62456 | 7067 ft | 370 kts | 252° |
| 2026-05-09 08:29 | 30.30362 | 104.59637 | 6993 ft | 369 kts | 252° |
| 2026-05-09 08:29 | 30.29621 | 104.56804 | 6914 ft | 367 kts | 258° |
| 2026-05-09 08:30 | 30.29406 | 104.53870 | 6841 ft | 366 kts | 274° |
| 2026-05-09 08:30 | 30.29946 | 104.51009 | 6777 ft | 365 kts | 292° |
| 2026-05-09 08:30 | 30.31236 | 104.48493 | 6701 ft | 365 kts | 310° |
| 2026-05-09 08:30 | 30.33147 | 104.46579 | 6618 ft | 365 kts | 327° |
| 2026-05-09 08:31 | 30.35320 | 104.45057 | 6539 ft | 365 kts | 329° |
| 2026-05-09 08:31 | 30.37520 | 104.43583 | 6456 ft | 365 kts | 330° |
| 2026-05-09 08:31 | 30.39728 | 104.42134 | 6370 ft | 365 kts | 330° |
| 2026-05-09 08:31 | 30.41940 | 104.40688 | 6281 ft | 364 kts | 330° |
| 2026-05-09 08:32 | 30.44112 | 104.39265 | 6173 ft | 363 kts | 330° |
| 2026-05-09 08:32 | 30.46311 | 104.37816 | 6104 ft | 363 kts | 330° |
| 2026-05-09 08:32 | 30.50695 | 104.34888 | 5955 ft | 363 kts | 329° |
| 2026-05-09 08:33 | 30.52878 | 104.33415 | 5880 ft | 363 kts | 329° |
| 2026-05-09 08:33 | 30.55040 | 104.31952 | 5759 ft | 349 kts | 329° |
| 2026-05-09 08:33 | 30.57018 | 104.30609 | 5637 ft | 308 kts | 329° |
| 2026-05-09 08:33 | 30.58759 | 104.29425 | 5536 ft | 273 kts | 329° |
| 2026-05-09 08:34 | 30.60356 | 104.28338 | 5435 ft | 262 kts | 329° |
| 2026-05-09 08:34 | 30.61831 | 104.27107 | 5305 ft | 260 kts | 310° |
| 2026-05-09 08:34 | 30.62743 | 104.25313 | 5227 ft | 260 kts | 292° |
| 2026-05-09 08:34 | 30.63421 | 104.23409 | 5158 ft | 260 kts | 291° |
| 2026-05-09 08:35 | 30.64096 | 104.21464 | 5092 ft | 259 kts | 291° |
| 2026-05-09 08:35 | 30.64765 | 104.19529 | 5026 ft | 258 kts | 291° |
| 2026-05-09 08:35 | 30.65213 | 104.18235 | 4965 ft | 257 kts | 290° |
| 2026-05-09 08:35 | 30.66270 | 104.15780 | 4902 ft | 260 kts | 310° |
| 2026-05-09 08:36 | 30.67756 | 104.14556 | 4910 ft | 274 kts | 339° |
| 2026-05-09 08:36 | 30.69634 | 104.14333 | 4897 ft | 275 kts | 10° |
| 2026-05-09 08:36 | 30.71470 | 104.15031 | 4856 ft | 278 kts | 21° |
| 2026-05-09 08:36 | 30.72665 | 104.15576 | 4692 ft | 276 kts | 22° |
| 2026-05-09 08:37 | 30.74410 | 104.16407 | 4446 ft | 266 kts | 22° |
| 2026-05-09 08:37 | 30.76086 | 104.17226 | 4219 ft | 257 kts | 23° |
| 2026-05-09 08:37 | 30.77704 | 104.18016 | 3988 ft | 247 kts | 23° |
| 2026-05-09 08:37 | 30.79221 | 104.18746 | 3929 ft | 226 kts | 20° |
| 2026-05-09 08:38 | 30.80694 | 104.18914 | 3902 ft | 202 kts | 343° |
| 2026-05-09 08:38 | 30.81747 | 104.18110 | 3863 ft | 166 kts | 302° |
| 2026-05-09 08:38 | 30.82369 | 104.17046 | 3907 ft | 156 kts | 300° |
| 2026-05-09 08:38 | 30.82974 | 104.16020 | 3895 ft | 154 kts | 301° |
| 2026-05-09 08:39 | 30.83577 | 104.14991 | 3881 ft | 152 kts | 299° |
| 2026-05-09 08:39 | 30.84108 | 104.13924 | 3899 ft | 152 kts | 295° |
| 2026-05-09 08:39 | 30.84619 | 104.12852 | 3897 ft | 151 kts | 295° |
| 2026-05-09 08:39 | 30.85071 | 104.11751 | 3892 ft | 151 kts | 283° |
| 2026-05-09 08:40 | 30.85352 | 104.10565 | 3906 ft | 151 kts | 282° |
| 2026-05-09 08:40 | 30.85615 | 104.09380 | 3888 ft | 153 kts | 282° |
| 2026-05-09 08:40 | 30.85578 | 104.08179 | 3877 ft | 148 kts | 240° |
| 2026-05-09 08:40 | 30.84909 | 104.07301 | 3894 ft | 146 kts | 218° |
| 2026-05-09 08:41 | 30.83998 | 104.06719 | 3903 ft | 152 kts | 202° |
| 2026-05-09 08:41 | 30.83000 | 104.06338 | 3896 ft | 151 kts | 198° |
| 2026-05-09 08:41 | 30.82004 | 104.05986 | 3893 ft | 149 kts | 200° |
| 2026-05-09 08:41 | 30.81036 | 104.05579 | 3888 ft | 150 kts | 202° |
| 2026-05-09 08:42 | 30.80061 | 104.05123 | 3894 ft | 150 kts | 203° |
| 2026-05-09 08:42 | 30.79095 | 104.04657 | 3907 ft | 151 kts | 204° |
| 2026-05-09 08:42 | 30.78129 | 104.04191 | 3891 ft | 149 kts | 204° |
| 2026-05-09 08:42 | 30.77164 | 104.03732 | 3873 ft | 150 kts | 202° |
| 2026-05-09 08:43 | 30.76178 | 104.03271 | 3899 ft | 152 kts | 202° |
| 2026-05-09 08:43 | 30.75202 | 104.02817 | 3881 ft | 153 kts | 202° |
| 2026-05-09 08:43 | 30.74208 | 104.02351 | 3896 ft | 152 kts | 202° |
| 2026-05-09 08:43 | 30.73231 | 104.01893 | 3903 ft | 151 kts | 202° |
| 2026-05-09 08:44 | 30.72249 | 104.01432 | 3894 ft | 152 kts | 202° |
| 2026-05-09 08:44 | 30.71272 | 104.00970 | 3906 ft | 151 kts | 202° |
| 2026-05-09 08:44 | 30.70287 | 104.00510 | 3820 ft | 152 kts | 202° |
| 2026-05-09 08:44 | 30.69296 | 104.00053 | 3706 ft | 154 kts | 202° |
| 2026-05-09 08:45 | 30.68317 | 103.99592 | 3507 ft | 150 kts | 202° |
| 2026-05-09 08:45 | 30.67354 | 103.99138 | 3312 ft | 149 kts | 202° |
| 2026-05-09 08:45 | 30.66392 | 103.98689 | 3109 ft | 149 kts | 202° |
| 2026-05-09 08:45 | 30.65436 | 103.98241 | 2926 ft | 145 kts | 202° |
| 2026-05-09 08:46 | 30.64495 | 103.97801 | 2749 ft | 145 kts | 201° |
| 2026-05-09 08:46 | 30.63553 | 103.97363 | 2540 ft | 149 kts | 201° |
| 2026-05-09 08:46 | 30.62577 | 103.96906 | 2341 ft | 154 kts | 202° |
| 2026-05-09 08:46 | 30.61569 | 103.96432 | 2139 ft | 160 kts | 202° |
| 2026-05-09 08:47 | 30.60536 | 103.95947 | 1935 ft | 159 kts | 201° |
| 2026-05-09 08:47 | 30.59552 | 103.95489 | 1730 ft | 148 kts | 201° |
| 2026-05-09 08:47 | 30.58645 | 103.95063 | 1675 ft | 129 kts | 201° |
| 2026-05-09 08:47 | 30.57874 | 103.94709 | 1650 ft | 112 kts | 200° |
| 2026-05-09 08:48 | 30.57294 | 103.94454 | 1647 ft | 65 kts | 208° |
| 2026-05-09 08:48 | 30.57021 | 103.94314 | 1647 ft | 20 kts | 198° |
| 2026-05-09 08:48 | 30.56886 | 103.94256 | 1650 ft | 22 kts | 207° |